createdAt,value
2019-01-28T00:01:24.205Z,3.20
2019-01-28T00:03:55.113Z,3.10
2019-01-28T00:06:25.749Z,3.10
2019-01-28T00:08:56.461Z,3.10
2019-01-28T00:11:26.997Z,3.10
2019-01-28T00:13:57.628Z,3.10
2019-01-28T00:16:28.234Z,3.10
2019-01-28T00:18:58.949Z,3.10
2019-01-28T00:21:29.649Z,3.10
2019-01-28T00:24:00.287Z,3.10
2019-01-28T00:26:30.978Z,3.10
2019-01-28T00:29:01.602Z,3.10
2019-01-28T00:31:32.205Z,3.10
2019-01-28T00:34:02.925Z,3.10
2019-01-28T00:36:33.613Z,3.20
2019-01-28T00:39:06.581Z,3.10
2019-01-28T00:41:38.474Z,3.10
2019-01-28T00:44:09.093Z,3.10
2019-01-28T00:46:39.729Z,3.10
2019-01-28T00:49:10.357Z,3.10
2019-01-28T00:51:40.912Z,3.10
2019-01-28T00:54:11.597Z,3.10
2019-01-28T00:56:42.301Z,3.10
2019-01-28T00:59:12.989Z,3.10
2019-01-28T01:01:43.630Z,3.10
2019-01-28T01:04:14.245Z,3.10
2019-01-28T01:06:44.893Z,3.00
2019-01-28T01:09:15.598Z,3.10
2019-01-28T01:11:46.306Z,3.00
2019-01-28T01:14:16.918Z,3.00
2019-01-28T01:16:47.537Z,3.00
2019-01-28T01:19:18.167Z,3.00
2019-01-28T01:21:48.890Z,3.00
2019-01-28T01:24:19.590Z,3.00
2019-01-28T01:26:50.310Z,3.00
2019-01-28T01:29:21.013Z,3.00
2019-01-28T01:31:51.715Z,3.00
2019-01-28T01:34:22.340Z,2.90
2019-01-28T01:36:53.060Z,3.00
2019-01-28T01:39:23.677Z,2.90
2019-01-28T01:41:54.393Z,2.90
2019-01-28T01:44:25.093Z,2.90
2019-01-28T01:46:55.808Z,2.90
2019-01-28T01:49:26.340Z,2.90
2019-01-28T01:51:56.980Z,2.80
2019-01-28T01:54:27.682Z,2.70
2019-01-28T01:56:58.320Z,2.60
2019-01-28T01:59:28.931Z,2.60
2019-01-28T02:01:59.632Z,2.50
2019-01-28T02:04:30.257Z,2.50
2019-01-28T02:07:00.921Z,2.60
2019-01-28T02:09:31.614Z,2.60
2019-01-28T02:12:02.334Z,2.60
2019-01-28T02:14:32.951Z,2.50
2019-01-28T02:17:03.869Z,2.50
2019-01-28T02:19:34.567Z,2.50
2019-01-28T02:22:05.277Z,2.50
2019-01-28T02:24:35.977Z,2.50
2019-01-28T02:27:06.616Z,2.50
2019-01-28T02:29:37.329Z,2.40
2019-01-28T02:32:08.052Z,2.50
2019-01-28T02:34:38.670Z,2.30
2019-01-28T02:37:09.385Z,2.20
2019-01-28T02:39:40.001Z,2.20
2019-01-28T02:42:10.630Z,2.10
2019-01-28T02:44:41.240Z,2.20
2019-01-28T02:47:11.963Z,2.20
2019-01-28T02:49:42.663Z,2.30
2019-01-28T02:52:13.365Z,2.20
2019-01-28T02:54:44.038Z,2.30
2019-01-28T02:57:14.850Z,2.30
2019-01-28T02:59:45.453Z,2.30
2019-01-28T03:02:16.100Z,2.20
2019-01-28T03:04:46.710Z,2.20
2019-01-28T03:07:17.446Z,2.20
2019-01-28T03:09:48.389Z,2.20
2019-01-28T03:12:19.097Z,2.20
2019-01-28T03:14:49.714Z,2.20
2019-01-28T03:17:20.842Z,2.10
2019-01-28T03:19:51.528Z,2.10
2019-01-28T03:22:22.172Z,2.10
2019-01-28T03:24:52.870Z,2.00
2019-01-28T03:27:23.586Z,2.00
2019-01-28T03:29:54.289Z,2.20
2019-01-28T03:32:25.015Z,2.20
2019-01-28T03:34:55.694Z,2.30
2019-01-28T03:37:26.422Z,2.40
2019-01-28T03:39:57.052Z,2.30
2019-01-28T03:42:27.770Z,2.30
2019-01-28T03:44:58.468Z,2.20
2019-01-28T03:47:29.092Z,2.20
2019-01-28T03:49:59.701Z,2.20
2019-01-28T03:52:30.517Z,2.20
2019-01-28T03:55:01.132Z,2.10
2019-01-28T03:57:31.849Z,2.10
2019-01-28T04:00:02.457Z,2.20
2019-01-28T04:02:33.106Z,2.20
2019-01-28T04:05:03.742Z,2.30
2019-01-28T04:07:34.477Z,2.40
2019-01-28T04:10:06.993Z,2.40
2019-01-28T04:12:38.056Z,2.40
2019-01-28T04:15:10.318Z,2.40
2019-01-28T04:17:41.040Z,2.30
2019-01-28T04:20:13.411Z,2.10
2019-01-28T04:22:44.285Z,2.20
2019-01-28T04:25:14.920Z,2.20
2019-01-28T04:27:45.644Z,2.20
2019-01-28T04:30:19.033Z,2.10
2019-01-28T04:32:49.749Z,2.10
2019-01-28T04:35:20.432Z,2.10
2019-01-28T04:37:52.025Z,2.30
2019-01-28T04:40:22.753Z,3.20
2019-01-28T04:42:53.416Z,2.30
2019-01-28T04:45:24.089Z,2.30
2019-01-28T04:47:55.056Z,2.30
2019-01-28T04:50:25.749Z,2.30
2019-01-28T04:52:56.391Z,2.30
2019-01-28T04:55:27.100Z,2.30
2019-01-28T04:57:57.755Z,2.30
2019-01-28T05:00:28.445Z,2.40
2019-01-28T05:02:59.106Z,2.40
2019-01-28T05:05:29.801Z,2.40
2019-01-28T05:08:00.458Z,2.40
2019-01-28T05:10:31.069Z,2.40
2019-01-28T05:13:01.777Z,2.50
2019-01-28T05:15:32.398Z,2.40
2019-01-28T05:18:03.111Z,2.50
2019-01-28T05:20:33.827Z,2.40
2019-01-28T05:23:04.428Z,2.50
2019-01-28T05:28:05.007Z,2.40
2019-01-28T05:30:35.755Z,2.40
2019-01-28T05:33:08.748Z,2.40
2019-01-28T05:35:39.433Z,2.40
2019-01-28T05:38:10.051Z,2.30
2019-01-28T05:40:40.769Z,2.30
2019-01-28T05:43:11.320Z,2.30
2019-01-28T05:45:41.968Z,2.30
2019-01-28T05:48:12.648Z,2.40
2019-01-28T05:50:43.282Z,2.40
2019-01-28T05:53:13.978Z,2.40
2019-01-28T05:55:44.697Z,2.40
2019-01-28T05:58:15.333Z,2.50
2019-01-28T06:00:46.734Z,2.50
2019-01-28T06:03:17.537Z,2.50
2019-01-28T06:05:48.194Z,2.50
2019-01-28T06:08:18.900Z,2.60
2019-01-28T06:10:49.610Z,2.50
2019-01-28T06:13:20.154Z,2.50
2019-01-28T06:15:50.949Z,2.50
2019-01-28T06:18:21.557Z,2.50
2019-01-28T06:20:52.189Z,2.50
2019-01-28T06:23:22.967Z,2.50
2019-01-28T06:25:53.696Z,2.50
2019-01-28T06:28:24.324Z,2.50
2019-01-28T06:30:54.966Z,2.50
2019-01-28T06:33:25.654Z,2.50
2019-01-28T06:35:56.371Z,2.50
2019-01-28T06:38:27.005Z,2.50
2019-01-28T06:40:57.714Z,2.50
2019-01-28T06:43:28.417Z,2.50
2019-01-28T06:45:59.051Z,2.50
2019-01-28T06:48:29.729Z,2.50
2019-01-28T06:51:00.456Z,2.40
2019-01-28T06:53:31.082Z,2.40
2019-01-28T06:56:01.809Z,2.40
2019-01-28T06:58:32.433Z,2.40
2019-01-28T07:01:03.150Z,2.40
2019-01-28T07:03:33.849Z,2.60
2019-01-28T07:06:04.612Z,2.60
2019-01-28T07:08:35.312Z,2.70
2019-01-28T07:11:06.018Z,2.70
2019-01-28T07:13:36.705Z,2.70
2019-01-28T07:16:07.337Z,2.80
2019-01-28T07:18:37.956Z,2.80
2019-01-28T07:21:08.665Z,2.80
2019-01-28T07:23:39.350Z,2.80
2019-01-28T07:26:09.993Z,2.70
2019-01-28T07:28:40.684Z,2.80
2019-01-28T07:31:11.325Z,2.80
2019-01-28T07:33:41.962Z,2.70
2019-01-28T07:36:13.638Z,2.60
2019-01-28T07:38:44.186Z,2.70
2019-01-28T07:41:14.834Z,2.70
2019-01-28T07:43:45.449Z,2.70
2019-01-28T07:46:16.124Z,2.70
2019-01-28T07:48:46.744Z,2.70
2019-01-28T07:51:17.397Z,2.60
2019-01-28T07:53:48.101Z,2.70
2019-01-28T07:56:18.825Z,2.70
2019-01-28T07:58:49.432Z,2.70
2019-01-28T08:01:20.073Z,2.70
2019-01-28T08:03:50.697Z,2.70
2019-01-28T08:06:21.353Z,2.80
2019-01-28T08:08:52.053Z,2.90
2019-01-28T08:11:22.694Z,2.90
2019-01-28T08:13:53.406Z,2.90
2019-01-28T08:16:24.240Z,2.90
2019-01-28T08:18:54.859Z,3.00
2019-01-28T08:21:25.578Z,3.30
2019-01-28T08:23:56.261Z,3.50
2019-01-28T08:26:26.905Z,3.60
2019-01-28T08:28:57.524Z,3.40
2019-01-28T08:31:28.173Z,3.40
2019-01-28T08:33:58.866Z,3.20
2019-01-28T08:36:29.582Z,3.20
2019-01-28T08:39:00.185Z,3.20
2019-01-28T08:41:30.829Z,3.30
2019-01-28T08:44:01.433Z,3.30
2019-01-28T08:46:32.069Z,3.40
2019-01-28T08:49:02.677Z,3.40
2019-01-28T08:51:34.369Z,3.40
2019-01-28T08:54:05.097Z,3.40
2019-01-28T08:56:35.743Z,3.40
2019-01-28T08:59:06.441Z,3.60
2019-01-28T09:01:37.166Z,3.70
2019-01-28T09:04:07.788Z,3.60
2019-01-28T09:06:38.511Z,3.70
2019-01-28T09:09:11.193Z,3.80
2019-01-28T09:11:41.915Z,3.90
2019-01-28T09:14:12.609Z,4.00
2019-01-28T09:16:43.242Z,4.00
2019-01-28T09:19:13.924Z,3.90
2019-01-28T09:21:44.568Z,3.80
2019-01-28T09:24:15.182Z,4.00
2019-01-28T09:26:46.226Z,3.90
2019-01-28T09:29:16.924Z,4.00
2019-01-28T09:31:48.380Z,4.10
2019-01-28T09:34:19.241Z,4.00
2019-01-28T09:36:49.773Z,3.90
2019-01-28T09:39:20.337Z,3.70
2019-01-28T09:41:50.955Z,3.70
2019-01-28T09:44:21.677Z,3.80
2019-01-28T09:46:52.389Z,3.70
2019-01-28T09:49:23.106Z,3.80
2019-01-28T09:51:53.785Z,3.80
2019-01-28T09:54:24.358Z,3.90
2019-01-28T09:56:55.042Z,3.90
2019-01-28T09:59:25.799Z,3.90
2019-01-28T10:01:56.496Z,4.00
2019-01-28T10:04:27.129Z,3.80
2019-01-28T10:06:57.692Z,4.00
2019-01-28T10:09:28.802Z,4.30
2019-01-28T10:11:59.480Z,4.40
2019-01-28T10:14:30.305Z,4.50
2019-01-28T10:17:00.947Z,4.60
2019-01-28T10:19:31.666Z,4.60
2019-01-28T10:22:02.351Z,4.40
2019-01-28T10:24:33.069Z,4.30
2019-01-28T10:27:04.258Z,4.20
2019-01-28T10:29:34.968Z,4.30
2019-01-28T10:32:05.517Z,4.20
2019-01-28T10:34:36.132Z,4.00
2019-01-28T10:37:06.844Z,4.00
2019-01-28T10:39:37.479Z,4.20
2019-01-28T10:42:10.005Z,3.90
2019-01-28T10:44:40.789Z,4.00
2019-01-28T10:47:11.412Z,3.90
2019-01-28T10:49:41.981Z,3.80
2019-01-28T10:52:12.589Z,3.80
2019-01-28T10:54:43.257Z,3.90
2019-01-28T10:57:13.952Z,4.00
2019-01-28T10:59:44.665Z,4.00
2019-01-28T11:02:15.361Z,3.90
2019-01-28T11:04:46.066Z,4.00
2019-01-28T11:07:16.694Z,3.80
2019-01-28T11:09:47.331Z,3.70
2019-01-28T11:12:18.207Z,3.90
2019-01-28T11:14:48.921Z,3.90
2019-01-28T11:17:19.535Z,3.80
2019-01-28T11:19:50.230Z,4.00
2019-01-28T11:22:20.997Z,4.00
2019-01-28T11:24:51.693Z,3.80
2019-01-28T11:27:22.318Z,3.90
2019-01-28T11:29:53.109Z,3.90
2019-01-28T11:32:23.769Z,4.00
2019-01-28T11:34:54.516Z,3.90
2019-01-28T11:37:25.251Z,4.00
2019-01-28T11:39:55.942Z,4.00
2019-01-28T11:42:26.584Z,3.90
2019-01-28T11:44:57.347Z,3.80
2019-01-28T11:47:28.097Z,4.00
2019-01-28T11:49:58.918Z,3.90
2019-01-28T11:52:29.673Z,3.90
2019-01-28T11:55:00.370Z,3.90
2019-01-28T11:57:31.082Z,3.80
2019-01-28T12:00:01.804Z,3.90
2019-01-28T12:02:34.385Z,3.90
2019-01-28T12:05:06.472Z,3.80
2019-01-28T12:07:37.283Z,3.80
2019-01-28T12:10:08.550Z,3.90
2019-01-28T12:12:39.169Z,3.90
2019-01-28T12:17:40.752Z,3.90
2019-01-28T12:20:11.813Z,3.80
2019-01-28T12:22:42.529Z,3.90
2019-01-28T12:25:14.153Z,3.90
2019-01-28T12:27:45.091Z,3.70
2019-01-28T12:30:26.220Z,3.80
2019-01-28T12:32:56.841Z,3.70
2019-01-28T12:35:27.552Z,3.60
2019-01-28T12:37:58.242Z,3.60
2019-01-28T12:40:28.957Z,3.50
2019-01-28T12:42:59.650Z,3.50
2019-01-28T12:45:30.465Z,3.50
2019-01-28T12:48:01.193Z,3.30
2019-01-28T12:50:32.877Z,3.30
2019-01-28T12:53:03.503Z,3.30
2019-01-28T12:55:34.213Z,3.20
2019-01-28T12:58:06.733Z,3.30
2019-01-28T13:00:42.072Z,3.30
2019-01-28T13:03:13.231Z,3.20
2019-01-28T13:05:43.923Z,3.20
2019-01-28T13:08:14.625Z,3.10
2019-01-28T13:10:45.333Z,3.20
2019-01-28T13:13:16.033Z,3.10
2019-01-28T13:15:46.757Z,3.10
2019-01-28T13:18:18.031Z,3.10
2019-01-28T13:20:48.715Z,3.20
2019-01-28T13:23:19.346Z,3.10
2019-01-28T13:25:49.994Z,3.10
2019-01-28T13:28:20.679Z,3.10
2019-01-28T13:30:51.389Z,3.10
2019-01-28T13:33:22.010Z,3.00
2019-01-28T13:35:52.654Z,3.10
2019-01-28T13:38:23.326Z,3.00
2019-01-28T13:40:54.036Z,3.00
2019-01-28T13:43:24.746Z,3.00
2019-01-28T13:45:55.493Z,3.00
2019-01-28T13:48:26.224Z,3.00
2019-01-28T13:50:56.865Z,2.90
2019-01-28T13:53:27.546Z,2.90
2019-01-28T13:55:59.226Z,2.90
2019-01-28T13:58:29.830Z,2.80
2019-01-28T14:01:00.573Z,2.80
2019-01-28T14:03:31.206Z,2.80
2019-01-28T14:06:01.938Z,2.70
2019-01-28T14:08:32.571Z,2.80
2019-01-28T14:11:03.297Z,2.70
2019-01-28T14:13:34.023Z,2.70
2019-01-28T14:16:05.005Z,2.70
2019-01-28T14:18:35.620Z,2.70
2019-01-28T14:21:07.558Z,2.70
2019-01-28T14:23:38.237Z,2.70
2019-01-28T14:26:08.890Z,2.60
2019-01-28T14:28:39.583Z,2.60
2019-01-28T14:36:10.546Z,2.60
2019-01-28T14:38:41.532Z,2.50
2019-01-28T14:41:12.297Z,2.50
2019-01-28T14:43:42.925Z,2.50
2019-01-28T14:46:13.656Z,2.50
2019-01-28T14:48:49.086Z,2.50
2019-01-28T14:51:16.728Z,2.50
2019-01-28T14:53:47.351Z,2.50
2019-01-28T14:56:18.065Z,2.50
2019-01-28T14:58:48.842Z,2.40
2019-01-28T15:01:19.562Z,2.50
2019-01-28T15:03:50.302Z,2.40
2019-01-28T15:06:21.053Z,2.40
2019-01-28T15:08:51.710Z,2.40
2019-01-28T15:11:22.477Z,2.30
2019-01-28T15:13:53.153Z,2.30
2019-01-28T15:16:23.909Z,2.30
2019-01-28T15:18:54.630Z,2.30
2019-01-28T15:21:26.099Z,2.30
2019-01-28T15:23:56.810Z,2.30
2019-01-28T15:26:27.680Z,2.30
2019-01-28T15:28:58.428Z,2.30
2019-01-28T15:31:29.228Z,2.30
2019-01-28T15:34:00.238Z,2.20
2019-01-28T15:36:30.949Z,2.30
2019-01-28T15:39:01.817Z,2.20
2019-01-28T15:41:33.755Z,2.20
2019-01-28T15:44:04.569Z,2.20
2019-01-28T15:46:35.441Z,2.20
2019-01-28T15:49:06.247Z,2.20
2019-01-28T15:51:37.222Z,2.20
2019-01-28T15:54:08.509Z,2.20
2019-01-28T15:56:40.344Z,2.30
2019-01-28T15:59:12.553Z,2.20
2019-01-28T16:01:44.284Z,2.30
2019-01-28T16:04:15.518Z,2.30
2019-01-28T16:06:46.781Z,2.20
2019-01-28T16:09:18.393Z,2.20
2019-01-28T16:11:50.458Z,2.20
2019-01-28T16:14:22.612Z,2.20
2019-01-28T16:16:54.453Z,2.20
2019-01-28T16:19:25.656Z,2.20
2019-01-28T16:21:58.500Z,2.20
2019-01-28T16:24:32.059Z,2.30
2019-01-28T16:27:04.196Z,2.30
2019-01-28T16:29:36.839Z,2.30
2019-01-28T16:32:08.509Z,2.30
2019-01-28T16:34:40.317Z,2.30
2019-01-28T16:37:12.489Z,2.30
2019-01-28T16:39:45.369Z,2.30
2019-01-28T16:42:18.010Z,2.30
2019-01-28T16:44:51.451Z,2.30
2019-01-28T16:47:24.603Z,2.30
2019-01-28T16:49:56.599Z,2.40
2019-01-28T16:54:59.487Z,2.40
2019-01-28T16:57:32.145Z,2.40
2019-01-28T17:00:05.771Z,2.40
2019-01-28T17:02:40.831Z,2.40
2019-01-28T17:05:15.128Z,2.40
2019-01-28T17:07:47.486Z,2.40
2019-01-28T17:10:19.813Z,2.40
2019-01-28T17:12:52.254Z,2.40
2019-01-28T17:15:25.370Z,2.40
2019-01-28T17:17:57.713Z,2.40
2019-01-28T17:20:35.573Z,2.40
2019-01-28T17:23:05.260Z,2.40
2019-01-28T17:25:40.126Z,2.50
2019-01-28T17:28:13.830Z,2.50
2019-01-28T17:30:48.129Z,2.50
2019-01-28T17:33:21.536Z,2.50
2019-01-28T17:35:54.969Z,2.50
2019-01-28T17:38:27.685Z,2.50
2019-01-28T17:41:01.100Z,2.40
2019-01-28T17:43:33.346Z,2.40
2019-01-28T17:46:07.062Z,2.40
2019-01-28T17:48:40.223Z,2.40
2019-01-28T17:51:14.386Z,2.40
2019-01-28T17:53:49.121Z,2.40
2019-01-28T17:56:22.726Z,2.40
2019-01-28T17:58:55.498Z,2.40
2019-01-28T18:01:27.745Z,2.40
2019-01-28T18:03:59.550Z,2.40
2019-01-28T18:06:31.968Z,2.40
2019-01-28T18:09:05.733Z,2.40
2019-01-28T18:11:38.281Z,2.40
2019-01-28T18:14:11.054Z,2.40
2019-01-28T18:16:43.485Z,2.40
2019-01-28T18:19:17.209Z,2.40
2019-01-28T18:21:49.614Z,2.40
2019-01-28T18:24:22.443Z,2.40
2019-01-28T18:26:54.701Z,2.40
2019-01-28T18:29:26.877Z,2.40
2019-01-28T18:31:59.334Z,2.40
2019-01-28T18:34:31.949Z,2.40
2019-01-28T18:37:04.972Z,2.40
2019-01-28T18:39:38.969Z,2.40
2019-01-28T18:42:14.356Z,2.40
2019-01-28T18:44:48.141Z,2.40
2019-01-28T18:47:21.338Z,2.40
2019-01-28T18:49:56.041Z,2.40
2019-01-28T18:52:31.361Z,2.40
2019-01-28T18:55:06.886Z,2.40
2019-01-28T18:57:40.684Z,2.40
2019-01-28T19:00:19.033Z,2.40
2019-01-28T19:02:53.273Z,2.40
2019-01-28T19:05:46.284Z,2.50
2019-01-28T19:08:33.997Z,2.40
2019-01-28T19:11:33.949Z,2.50
2019-01-28T19:14:22.929Z,2.50
2019-01-28T19:17:13.757Z,2.50
2019-01-28T19:20:16.471Z,2.50
2019-01-28T19:22:50.801Z,2.50
2019-01-28T19:25:26.977Z,2.50
2019-01-28T19:28:00.925Z,2.50
2019-01-28T19:30:35.789Z,2.50
2019-01-28T19:33:10.708Z,2.50
2019-01-28T19:35:46.098Z,2.50
2019-01-28T19:38:22.430Z,2.60
2019-01-28T19:40:57.172Z,2.60
2019-01-28T19:43:32.973Z,2.60
2019-01-28T19:46:08.346Z,2.60
2019-01-28T19:48:44.030Z,2.60
2019-01-28T19:51:18.391Z,2.60
2019-01-28T19:53:52.753Z,2.70
2019-01-28T19:56:27.961Z,2.70
2019-01-28T19:59:01.833Z,2.70
2019-01-28T20:01:37.569Z,2.80
2019-01-28T20:04:14.136Z,2.80
2019-01-28T20:06:50.655Z,2.90
2019-01-28T20:09:25.771Z,2.80
2019-01-28T20:12:02.227Z,2.80
2019-01-28T20:14:38.067Z,2.80
2019-01-28T20:17:15.180Z,2.80
2019-01-28T20:19:52.514Z,2.80
2019-01-28T20:22:28.392Z,2.80
2019-01-28T20:25:04.838Z,2.80
2019-01-28T20:27:40.222Z,1.50
2019-01-28T20:30:18.813Z,2.80
2019-01-28T20:32:53.739Z,2.80
2019-01-28T20:35:30.230Z,2.80
2019-01-28T20:38:05.564Z,2.60
2019-01-28T20:40:40.528Z,2.60
2019-01-28T20:43:23.712Z,2.60
2019-01-28T20:45:53.258Z,2.60
2019-01-28T20:48:28.572Z,2.50
2019-01-28T20:51:04.208Z,2.50
2019-01-28T20:53:38.775Z,2.50
2019-01-28T20:56:14.344Z,2.50
2019-01-28T20:58:49.125Z,2.50
2019-01-28T21:01:32.371Z,2.50
2019-01-28T21:04:06.740Z,2.50
2019-01-28T21:06:41.205Z,2.60
2019-01-28T21:09:15.737Z,2.50
2019-01-28T21:11:49.305Z,2.50
2019-01-28T21:14:24.355Z,2.40
2019-01-28T21:16:59.020Z,2.50
2019-01-28T21:19:35.222Z,2.40
2019-01-28T21:22:08.774Z,2.40
2019-01-28T21:24:42.236Z,2.30
2019-01-28T21:27:15.471Z,2.30
2019-01-28T21:29:49.497Z,2.30
2019-01-28T21:32:23.111Z,2.30
2019-01-28T21:34:56.431Z,2.30
2019-01-28T21:37:33.509Z,2.20
2019-01-28T21:40:07.986Z,2.30
2019-01-28T21:42:40.601Z,2.30
2019-01-28T21:45:13.959Z,2.30
2019-01-28T21:47:56.065Z,2.30
2019-01-28T21:50:29.498Z,2.20
2019-01-28T21:53:01.798Z,2.10
2019-01-28T21:55:33.273Z,2.00
2019-01-28T21:58:04.458Z,1.90
2019-01-28T22:00:36.459Z,1.90
2019-01-28T22:03:08.168Z,1.80
2019-01-28T22:05:39.319Z,1.90
2019-01-28T22:08:10.810Z,1.90
2019-01-28T22:10:42.135Z,2.00
2019-01-28T22:13:13.333Z,2.00
2019-01-28T22:15:44.661Z,2.00
2019-01-28T22:18:16.358Z,2.10
2019-01-28T22:20:47.193Z,2.30
2019-01-28T22:23:18.360Z,2.20
2019-01-28T22:25:49.097Z,2.10
2019-01-28T22:28:20.166Z,2.10
2019-01-28T22:30:50.809Z,2.00
2019-01-28T22:33:21.428Z,2.00
2019-01-28T22:35:52.148Z,2.00
2019-01-28T22:38:22.796Z,1.90
2019-01-28T22:40:53.469Z,1.90
2019-01-28T22:43:24.158Z,1.90
2019-01-28T22:45:54.872Z,2.00
2019-01-28T22:48:25.502Z,1.90
2019-01-28T22:50:57.114Z,2.00
2019-01-28T22:53:27.712Z,1.90
2019-01-28T22:55:58.350Z,1.90
2019-01-28T22:58:29.049Z,1.80
2019-01-28T23:01:15.508Z,1.70
2019-01-28T23:03:46.140Z,1.70
2019-01-28T23:06:16.869Z,1.70
2019-01-28T23:08:47.500Z,1.70
2019-01-28T23:11:18.210Z,1.60
2019-01-28T23:13:48.910Z,1.60
2019-01-28T23:16:19.776Z,1.50
2019-01-28T23:18:50.459Z,1.40
2019-01-28T23:21:21.168Z,1.40
2019-01-28T23:23:51.844Z,1.30
2019-01-28T23:26:22.567Z,1.20
2019-01-28T23:28:53.170Z,1.20
2019-01-28T23:31:23.898Z,1.20
2019-01-28T23:33:54.501Z,1.20
2019-01-28T23:36:25.210Z,1.20
2019-01-28T23:38:55.815Z,1.10
2019-01-28T23:41:26.449Z,1.00
2019-01-28T23:43:57.079Z,0.90
2019-01-28T23:48:57.630Z,0.90
2019-01-28T23:51:28.256Z,0.90
2019-01-28T23:53:58.957Z,0.90
2019-01-28T23:56:29.538Z,0.90
2019-01-28T23:59:00.298Z,1.00
